Time;durP1;ratioP1;P1;durP2;ratioP2;P2;SDS_P1;SDS_P2;PMS_P1;PMS_P2;Temp;Humidity;BMP_temperature;BMP_pressure;BME280_temperature;BME280_humidity;BME280_pressure;Samples;Min_cycle;Max_cycle;Signal;HPM_P1;HPM_P2
2022/04/02 00:02:00;;;;;;;13.03;9.03;;;;;;;-1.81;100.00;95689.19;5011619;28;21253;-56
2022/04/02 00:04:28;;;;;;;13.30;9.43;;;;;;;-1.82;100.00;95697.16;5024271;28;20303;-57
2022/04/02 00:06:57;;;;;;;10.53;9.50;;;;;;;-1.84;100.00;95692.09;5027874;28;20458;-57
2022/04/02 00:09:27;;;;;;;12.10;9.10;;;;;;;-1.85;100.00;95687.06;4986945;28;20231;-58
2022/04/02 00:11:56;;;;;;;9.37;8.30;;;;;;;-1.88;100.00;95687.34;5024126;28;20976;-55
2022/04/02 00:14:24;;;;;;;9.93;8.90;;;;;;;-1.77;100.00;95687.94;4997847;28;23259;-54
2022/04/02 00:16:53;;;;;;;19.53;9.90;;;;;;;-1.81;100.00;95689.19;5004844;28;20569;-53
2022/04/02 00:19:22;;;;;;;10.03;9.00;;;;;;;-1.80;100.00;95690.03;5019012;28;20238;-50
2022/04/02 00:21:50;;;;;;;10.00;9.10;;;;;;;-1.82;100.00;95684.16;5024435;28;20869;-58
2022/04/02 00:24:19;;;;;;;13.03;8.63;;;;;;;-1.85;100.00;95674.88;4980060;28;20786;-52
2022/04/02 00:26:49;;;;;;;9.73;8.57;;;;;;;-1.77;100.00;95685.34;5025254;28;20200;-56
2022/04/02 00:29:17;;;;;;;13.50;9.13;;;;;;;-1.84;100.00;95673.09;4992386;28;20223;-58
2022/04/02 00:31:46;;;;;;;11.57;8.17;;;;;;;-1.71;100.00;95688.34;5020026;28;20223;-57
2022/04/02 00:34:14;;;;;;;10.30;7.57;;;;;;;-1.74;100.00;95684.25;5005224;28;20207;-56
2022/04/02 00:36:44;;;;;;;9.90;7.97;;;;;;;-1.78;100.00;95683.72;5024603;28;20419;-55
2022/04/02 00:39:13;;;;;;;10.40;8.17;;;;;;;-1.85;100.00;95667.09;5019665;28;20316;-54
2022/04/02 00:41:41;;;;;;;8.67;7.40;;;;;;;-1.64;100.00;95689.41;4985715;28;20223;-59
2022/04/02 00:44:13;;;;;;;7.83;6.83;;;;;;;-1.63;100.00;95685.84;5023550;28;20196;-51
2022/04/02 00:46:43;;;;;;;10.00;7.00;;;;;;;-1.58;100.00;95693.19;5006138;28;20208;-56
2022/04/02 00:49:13;;;;;;;8.27;5.80;;;;;;;-1.65;100.00;95693.78;5001554;28;20317;-50
2022/04/02 00:51:42;;;;;;;8.30;6.30;;;;;;;-1.57;100.00;95695.66;5022693;28;20223;-57
2022/04/02 00:54:13;;;;;;;11.10;5.87;;;;;;;-1.65;100.00;95700.75;5017053;28;20212;-54
2022/04/02 00:56:43;;;;;;;8.30;5.83;;;;;;;-1.53;100.00;95701.38;4987022;28;20254;-59
2022/04/02 00:59:13;;;;;;;7.23;6.57;;;;;;;-1.66;100.00;95702.53;5022317;28;20303;-52
2022/04/02 01:01:43;;;;;;;8.20;6.47;;;;;;;-1.63;100.00;95704.03;4999782;28;20237;-56
2022/04/02 01:04:11;;;;;;;13.07;7.07;;;;;;;-1.63;100.00;95706.63;5002350;28;20238;-54
2022/04/02 01:06:42;;;;;;;11.20;6.40;;;;;;;-1.61;100.00;95712.50;5026373;28;20207;-56
2022/04/02 01:09:10;;;;;;;6.93;6.33;;;;;;;-1.61;100.00;95709.91;5022599;28;20239;-52
2022/04/02 01:11:40;;;;;;;10.03;6.10;;;;;;;-1.62;100.00;95708.28;4982478;28;20735;-53
2022/04/02 01:14:10;;;;;;;8.80;5.90;;;;;;;-1.69;100.00;95712.41;5018720;28;20213;-53
2022/04/02 01:16:40;;;;;;;10.33;6.03;;;;;;;-1.56;100.00;95712.88;4983624;28;20208;-54
2022/04/02 01:19:09;;;;;;;15.13;5.67;;;;;;;-1.65;100.00;95713.75;5019824;28;22291;-56
2022/04/02 01:21:38;;;;;;;6.17;5.73;;;;;;;-1.67;100.00;95706.09;5005467;28;20226;-54
2022/04/02 01:24:08;;;;;;;10.83;5.90;;;;;;;-1.69;100.00;95712.41;5021803;28;20200;-53
2022/04/02 01:26:38;;;;;;;11.60;6.43;;;;;;;-1.72;100.00;95717.84;4996830;28;20215;-56
2022/04/02 01:29:06;;;;;;;6.63;5.50;;;;;;;-1.67;100.00;95726.06;5010933;28;20916;-56
2022/04/02 01:31:35;;;;;;;13.40;6.53;;;;;;;-1.64;100.00;95726.56;5017483;28;20228;-54
2022/04/02 01:34:04;;;;;;;7.87;6.23;;;;;;;-1.69;100.00;95722.78;5013141;28;20223;-59
2022/04/02 01:36:33;;;;;;;6.60;5.90;;;;;;;-1.80;100.00;95726.38;5002993;28;20201;-54
2022/04/02 01:39:01;;;;;;;9.53;5.70;;;;;;;-1.68;100.00;95735.63;5023039;28;21018;-53
2022/04/02 01:41:31;;;;;;;5.80;5.27;;;;;;;-1.68;100.00;95730.44;5023912;28;20842;-57
2022/04/02 01:44:00;;;;;;;7.00;5.73;;;;;;;-1.81;100.00;95730.75;4985967;28;20208;-54
2022/04/02 01:46:28;;;;;;;7.63;5.87;;;;;;;-1.84;100.00;95733.63;5018765;28;21288;-57
2022/04/02 01:48:58;;;;;;;10.40;6.03;;;;;;;-1.88;100.00;95732.28;5001517;28;20220;-53
2022/04/02 01:51:27;;;;;;;7.53;5.30;;;;;;;-1.88;100.00;95739.28;5020528;28;20307;-55
2022/04/02 01:53:56;;;;;;;10.00;5.93;;;;;;;-1.92;100.00;95738.72;5002453;28;20220;-55
2022/04/02 01:56:24;;;;;;;7.93;5.47;;;;;;;-1.91;100.00;95735.97;5025127;28;20199;-58
2022/04/02 01:58:54;;;;;;;6.40;5.77;;;;;;;-1.95;100.00;95734.63;4984197;28;20803;-55
2022/04/02 02:01:23;;;;;;;12.27;5.60;;;;;;;-2.01;100.00;95730.00;5017538;28;20228;-55
2022/04/02 02:03:51;;;;;;;9.93;6.77;;;;;;;-1.98;100.00;95729.72;5001973;28;20301;-55
2022/04/02 02:06:20;;;;;;;10.10;5.80;;;;;;;-1.88;100.00;95732.28;5021151;28;20290;-55
2022/04/02 02:08:48;;;;;;;8.87;6.60;;;;;;;-1.97;100.00;95731.34;5006346;28;20230;-55
2022/04/02 02:11:18;;;;;;;10.50;6.67;;;;;;;-1.96;100.00;95738.16;5025266;28;20230;-57
2022/04/02 02:13:46;;;;;;;10.87;6.77;;;;;;;-1.95;100.00;95739.00;4987314;28;25361;-57
2022/04/02 02:16:16;;;;;;;12.00;6.40;;;;;;;-1.92;100.00;95734.34;5022347;28;20204;-55
2022/04/02 02:18:45;;;;;;;9.07;6.43;;;;;;;-1.93;100.00;95740.47;5004363;28;20227;-52
2022/04/02 02:21:14;;;;;;;10.57;6.90;;;;;;;-2.01;100.00;95734.38;5019612;28;20223;-55
2022/04/02 02:23:44;;;;;;;10.43;6.83;;;;;;;-2.02;100.00;95740.53;4999807;28;20235;-54
2022/04/02 02:26:12;;;;;;;7.50;6.37;;;;;;;-1.94;100.00;95735.44;5027649;28;20324;-54
2022/04/02 02:28:42;;;;;;;8.23;7.20;;;;;;;-2.08;100.00;95734.94;4993893;28;21425;-54
2022/04/02 02:31:11;;;;;;;8.30;6.70;;;;;;;-1.94;100.00;95741.44;5026487;28;20208;-55
2022/04/02 02:36:27;;;;;;;9.30;7.77;;;;;;;-1.96;100.00;95750.34;5022765;28;20210;-50
2022/04/02 02:38:59;;;;;;;12.53;6.67;;;;;;;-2.00;100.00;95747.22;5003788;28;20197;-59
2022/04/02 02:41:28;;;;;;;10.33;6.60;;;;;;;-2.00;100.00;95736.81;5023483;28;20353;-55
2022/04/02 02:43:56;;;;;;;11.83;6.80;;;;;;;-1.92;100.00;95747.31;4986808;28;20222;-56
2022/04/02 02:46:25;;;;;;;9.23;8.17;;;;;;;-1.98;100.00;95745.28;5024732;28;20457;-56
2022/04/02 02:48:55;;;;;;;8.43;7.53;;;;;;;-1.95;100.00;95744.19;5022689;28;20446;-55
2022/04/02 02:51:23;;;;;;;11.30;7.43;;;;;;;-1.98;100.00;95750.47;5002577;28;20235;-54
2022/04/02 02:53:52;;;;;;;7.70;6.93;;;;;;;-2.05;100.00;95742.44;5004807;28;20290;-54
2022/04/02 02:59:44;;;;;;;11.90;7.07;;;;;;;-1.97;100.00;95746.13;4991351;28;20254;-53
2022/04/02 03:02:13;;;;;;;12.30;7.20;;;;;;;-2.02;100.00;95753.50;5023984;28;20204;-55
2022/04/02 03:04:43;;;;;;;10.23;7.03;;;;;;;-1.93;100.00;95750.06;5008733;28;20877;-54
2022/04/02 03:07:11;;;;;;;16.53;7.33;;;;;;;-2.00;100.00;95751.59;5023528;28;21056;-55
2022/04/02 03:09:40;;;;;;;10.83;6.60;;;;;;;-2.01;100.00;95760.34;5002360;28;20481;-54
2022/04/02 03:12:09;;;;;;;8.43;7.47;;;;;;;-2.06;100.00;95750.38;5024566;28;20483;-58
2022/04/02 03:14:38;;;;;;;10.93;6.43;;;;;;;-2.14;100.00;95753.66;5022177;28;20533;-56
2022/04/02 03:17:06;;;;;;;18.50;6.53;;;;;;;-2.00;100.00;95759.38;4989813;28;20225;-55
2022/04/02 03:19:35;;;;;;;9.30;6.57;;;;;;;-2.06;100.00;95752.97;5022828;28;20235;-55
2022/04/02 03:22:05;;;;;;;8.00;5.57;;;;;;;-2.09;100.00;95759.25;4998654;28;20243;-56
2022/04/02 03:24:33;;;;;;;7.87;6.87;;;;;;;-2.09;100.00;95761.84;5004308;28;20215;-60
2022/04/02 03:27:02;;;;;;;6.63;6.03;;;;;;;-2.07;100.00;95766.91;4996785;28;20204;-58
2022/04/02 03:29:30;;;;;;;8.80;6.67;;;;;;;-2.09;100.00;95764.44;5023538;28;20235;-54
2022/04/02 03:31:59;;;;;;;8.93;6.77;;;;;;;-2.17;100.00;95760.91;4987639;28;20478;-57
2022/04/02 03:34:27;;;;;;;7.03;6.43;;;;;;;-2.10;100.00;95768.00;5005969;28;20204;-60
2022/04/02 03:36:56;;;;;;;9.57;6.60;;;;;;;-2.15;100.00;95761.59;4996684;28;20208;-58
2022/04/02 03:39:26;;;;;;;10.10;7.53;;;;;;;-2.19;100.00;95769.66;4993515;28;20450;-55
2022/04/02 03:41:54;;;;;;;14.73;7.47;;;;;;;-2.16;100.00;95770.34;5024009;28;20220;-59
2022/04/02 03:44:23;;;;;;;7.33;6.73;;;;;;;-2.20;100.00;95769.78;5021085;28;20856;-58
2022/04/02 03:47:10;;;;;;;6.97;6.33;;;;;;;-2.21;100.00;95766.38;5020732;28;20498;-58
2022/04/02 03:49:40;;;;;;;8.17;7.27;;;;;;;-2.25;100.00;95772.81;5021395;28;20223;-59
2022/04/02 03:52:09;;;;;;;7.20;6.50;;;;;;;-2.29;100.00;95775.81;5008068;28;20227;-52
2022/04/02 03:54:40;;;;;;;9.90;6.67;;;;;;;-2.24;100.00;95774.47;5019483;28;20680;-58
2022/04/02 03:57:09;;;;;;;7.57;6.77;;;;;;;-2.19;100.00;95777.44;4997938;28;20222;-55
2022/04/02 03:59:38;;;;;;;9.83;6.13;;;;;;;-2.26;100.00;95788.50;4993634;28;20639;-59
2022/04/02 04:02:07;;;;;;;9.53;7.73;;;;;;;-2.20;100.00;95785.34;5020716;28;20231;-58
2022/04/02 04:04:36;;;;;;;10.27;6.57;;;;;;;-2.10;100.00;95783.56;4984350;28;20243;-60
2022/04/02 04:07:05;;;;;;;12.53;7.33;;;;;;;-2.24;100.00;95778.81;5000716;28;20675;-58
2022/04/02 04:09:34;;;;;;;7.80;7.00;;;;;;;-2.32;100.00;95787.28;5008963;28;20459;-55
2022/04/02 04:12:04;;;;;;;7.00;6.37;;;;;;;-2.23;100.00;95790.81;5003564;28;20234;-54
2022/04/02 04:14:33;;;;;;;8.47;7.60;;;;;;;-2.22;100.00;95789.88;5024602;28;20196;-57
2022/04/02 04:17:01;;;;;;;8.40;7.40;;;;;;;-2.18;100.00;95793.81;5024541;28;20489;-54
2022/04/02 04:19:31;;;;;;;8.50;7.57;;;;;;;-2.14;100.00;95790.00;4985617;28;20727;-52
2022/04/02 04:22:00;;;;;;;9.73;7.20;;;;;;;-2.18;100.00;95796.41;5021503;28;20231;-54
2022/04/02 04:24:30;;;;;;;9.10;7.67;;;;;;;-2.16;100.00;95791.09;4997581;28;20211;-58
2022/04/02 04:26:58;;;;;;;7.90;7.20;;;;;;;-2.14;100.00;95797.78;4996395;28;20766;-57
2022/04/02 04:29:28;;;;;;;13.30;7.03;;;;;;;-2.21;100.00;95781.13;4993594;28;20211;-57
2022/04/02 04:31:56;;;;;;;10.17;7.30;;;;;;;-2.15;100.00;95806.53;5020606;28;20239;-55
2022/04/02 04:34:25;;;;;;;8.97;8.17;;;;;;;-2.12;100.00;95797.66;5020987;28;20290;-58
2022/04/02 04:36:53;;;;;;;9.77;8.77;;;;;;;-2.16;100.00;95798.88;4954957;28;20215;-56
2022/04/02 04:39:22;;;;;;;9.67;8.00;;;;;;;-2.20;100.00;95804.34;4994850;28;20211;-56
2022/04/02 04:41:50;;;;;;;9.13;7.47;;;;;;;-2.25;100.00;95806.56;5002342;28;20230;-59
2022/04/02 04:44:19;;;;;;;11.33;8.00;;;;;;;-2.32;100.00;95808.03;5019524;28;20484;-56
2022/04/02 04:46:48;;;;;;;8.67;7.63;;;;;;;-2.29;100.00;95806.94;5026407;28;20204;-55
2022/04/02 04:49:17;;;;;;;8.67;7.73;;;;;;;-2.33;100.00;95807.22;5022601;28;20200;-54
2022/04/02 04:51:46;;;;;;;11.90;8.27;;;;;;;-2.34;100.00;95810.78;4986877;28;20231;-58
2022/04/02 04:54:14;;;;;;;10.60;8.87;;;;;;;-2.27;100.00;95807.63;4945133;28;20220;-56
2022/04/02 04:56:42;;;;;;;11.75;8.77;;;;;;;-2.23;100.00;95816.78;5004915;28;20557;-58
2022/04/02 04:59:12;;;;;;;10.53;9.50;;;;;;;-2.25;100.00;95821.28;5024928;28;20223;-59
2022/04/02 05:01:40;;;;;;;13.67;9.47;;;;;;;-2.23;100.00;95816.78;5002466;28;20223;-60
2022/04/02 05:04:11;;;;;;;10.13;8.97;;;;;;;-2.28;100.00;95816.38;4996325;28;20937;-58
2022/04/02 05:06:39;;;;;;;9.33;8.50;;;;;;;-2.28;100.00;95822.38;4984206;28;20212;-59
2022/04/02 05:09:08;;;;;;;9.37;8.13;;;;;;;-2.24;100.00;95823.75;5001961;28;20580;-56
2022/04/02 05:11:37;;;;;;;10.57;8.87;;;;;;;-2.26;100.00;95824.84;5021761;28;20220;-58
2022/04/02 05:14:06;;;;;;;12.77;9.87;;;;;;;-2.24;100.00;95831.53;5004723;28;20214;-58
2022/04/02 05:16:34;;;;;;;13.80;9.87;;;;;;;-2.16;100.00;95830.03;5002433;28;20908;-59
2022/04/02 05:19:03;;;;;;;12.23;9.10;;;;;;;-2.29;100.00;95831.09;5017673;28;20228;-55
2022/04/02 05:21:33;;;;;;;10.90;9.80;;;;;;;-2.27;100.00;95838.78;5021381;28;20230;-52
2022/04/02 05:24:01;;;;;;;15.13;9.53;;;;;;;-2.23;100.00;95838.38;4976821;28;20234;-53
2022/04/02 05:26:30;;;;;;;11.57;8.70;;;;;;;-2.23;100.00;95846.16;5018074;28;20212;-58
2022/04/02 05:28:59;;;;;;;10.60;9.50;;;;;;;-2.16;100.00;95848.19;5000602;28;20212;-56
2022/04/02 05:31:27;;;;;;;11.83;9.73;;;;;;;-1.97;100.00;95849.97;5003319;28;20239;-59
2022/04/02 05:33:56;;;;;;;11.37;8.53;;;;;;;-2.08;100.00;95845.72;5020045;28;20207;-56
2022/04/02 05:36:24;;;;;;;14.90;10.70;;;;;;;-2.04;100.00;95845.31;5016030;28;20891;-59
2022/04/02 05:38:54;;;;;;;10.27;9.27;;;;;;;-2.08;100.00;95846.56;4986671;28;20223;-53
2022/04/02 05:41:23;;;;;;;10.73;9.83;;;;;;;-1.96;100.00;95849.81;4998296;28;20234;-57
2022/04/02 05:43:51;;;;;;;12.97;9.30;;;;;;;-2.01;100.00;95849.41;5001312;28;20208;-59
2022/04/02 05:46:20;;;;;;;14.40;9.30;;;;;;;-1.80;100.00;95851.84;5020790;28;20865;-54
2022/04/02 05:48:49;;;;;;;11.40;9.27;;;;;;;-1.90;100.00;95856.22;5017027;28;20210;-58
2022/04/02 05:51:18;;;;;;;12.83;9.60;;;;;;;-1.77;100.00;95850.75;5021968;28;20235;-59
2022/04/02 05:53:46;;;;;;;12.83;9.60;;;;;;;-1.75;100.00;95854.81;4994933;28;20211;-58
2022/04/02 05:56:16;;;;;;;12.90;9.47;;;;;;;-1.77;100.00;95854.16;5010081;28;20291;-57
2022/04/02 05:58:45;;;;;;;13.57;9.40;;;;;;;-1.74;100.00;95847.88;4991317;28;20235;-59
2022/04/02 06:01:15;;;;;;;11.37;10.10;;;;;;;-1.61;100.00;95860.56;5009046;28;20938;-57
2022/04/02 06:03:43;;;;;;;12.33;9.53;;;;;;;-1.50;100.00;95864.78;5011223;28;20218;-52
2022/04/02 06:06:12;;;;;;;11.00;9.63;;;;;;;-1.57;100.00;95874.91;5021959;28;20200;-53
2022/04/02 06:08:41;;;;;;;11.03;9.93;;;;;;;-1.51;100.00;95876.13;4992805;28;20211;-54
2022/04/02 06:11:09;;;;;;;10.53;9.43;;;;;;;-1.49;100.00;95875.00;4999551;28;20236;-55
2022/04/02 06:13:39;;;;;;;10.73;9.73;;;;;;;-1.37;100.00;95882.63;5026606;28;20207;-58
2022/04/02 06:16:08;;;;;;;12.03;9.50;;;;;;;-1.50;100.00;95873.38;5007929;28;20220;-56
2022/04/02 06:18:36;;;;;;;11.67;9.10;;;;;;;-1.41;100.00;95878.66;4986752;28;20243;-59
2022/04/02 06:21:05;;;;;;;11.17;10.07;;;;;;;-1.43;100.00;95880.59;5029231;28;20230;-58
2022/04/02 06:23:34;;;;;;;15.33;9.90;;;;;;;-1.47;100.00;95890.47;4983459;28;21610;-56
2022/04/02 06:26:02;;;;;;;11.93;8.83;;;;;;;-1.37;100.00;95891.25;5005193;28;20207;-51
2022/04/02 06:28:31;;;;;;;11.40;8.40;;;;;;;-1.33;100.00;95889.19;5014225;28;20864;-56
2022/04/02 06:31:01;;;;;;;9.57;8.67;;;;;;;-1.36;100.00;95892.91;5013879;28;20235;-53
2022/04/02 06:33:30;;;;;;;9.93;9.03;;;;;;;-1.39;100.00;95895.78;5010503;28;20290;-54
2022/04/02 06:35:59;;;;;;;9.77;8.90;;;;;;;-1.39;100.00;95895.78;5026933;28;20204;-55
2022/04/02 06:38:27;;;;;;;12.17;9.23;;;;;;;-1.41;100.00;95892.50;5022576;28;20196;-57
2022/04/02 06:40:56;;;;;;;13.97;9.80;;;;;;;-1.45;100.00;95888.53;4991701;28;20234;-54
2022/04/02 06:43:29;;;;;;;12.80;11.60;;;;;;;-1.35;100.00;95897.13;5014580;28;21095;-59
2022/04/02 06:45:58;;;;;;;11.63;10.00;;;;;;;-1.38;100.00;95897.41;5007933;28;20215;-53
2022/04/02 06:48:28;;;;;;;15.30;10.13;;;;;;;-1.31;100.00;95908.06;5021836;28;20203;-58
2022/04/02 06:50:56;;;;;;;15.63;11.03;;;;;;;-1.42;100.00;95905.63;5009116;28;20227;-55
2022/04/02 06:53:25;;;;;;;15.77;9.27;;;;;;;-1.39;100.00;95900.97;5025709;28;20720;-56
2022/04/02 06:55:53;;;;;;;10.20;9.20;;;;;;;-1.44;100.00;95900.56;4990971;28;20215;-57
2022/04/02 06:58:26;;;;;;;11.20;9.47;;;;;;;-1.41;100.00;95913.28;5005521;28;20200;-56
2022/04/02 07:00:55;;;;;;;8.57;7.77;;;;;;;-1.42;100.00;95911.66;5010876;28;20231;-56
2022/04/02 07:03:24;;;;;;;12.13;9.30;;;;;;;-1.40;100.00;95920.13;5025290;28;20205;-52
2022/04/02 07:05:54;;;;;;;11.10;9.03;;;;;;;-1.24;100.00;95927.34;5009365;28;20846;-53
2022/04/02 07:08:22;;;;;;;10.10;9.07;;;;;;;-1.21;100.00;95931.41;5018197;28;20852;-55
2022/04/02 07:10:51;;;;;;;10.10;9.03;;;;;;;-1.19;100.00;95938.13;4989336;28;20593;-56
2022/04/02 07:13:19;;;;;;;14.43;10.67;;;;;;;-1.24;100.00;95940.31;5003746;28;20227;-53
2022/04/02 07:15:48;;;;;;;11.83;9.90;;;;;;;-1.22;100.00;95941.00;5005391;28;20212;-54
2022/04/02 07:18:16;;;;;;;11.20;9.87;;;;;;;-1.17;100.00;95945.75;5019438;28;20223;-53
2022/04/02 07:20:46;;;;;;;13.60;10.90;;;;;;;-1.32;100.00;95953.22;5008727;28;20236;-54
2022/04/02 07:23:17;;;;;;;11.80;10.70;;;;;;;-1.22;100.00;95958.38;5020499;28;20206;-53
2022/04/02 07:25:48;;;;;;;11.37;10.27;;;;;;;-1.20;100.00;95957.28;5026563;28;20206;-55
2022/04/02 07:28:17;;;;;;;9.90;8.90;;;;;;;-1.29;100.00;95954.69;4964293;28;20226;-53
2022/04/02 07:30:46;;;;;;;13.33;9.37;;;;;;;-1.17;100.00;95956.16;5017635;28;20687;-57
2022/04/02 07:33:14;;;;;;;11.27;10.07;;;;;;;-1.04;100.00;95967.09;5008164;28;20219;-49
2022/04/02 07:35:50;;;;;;;11.97;10.83;;;;;;;-0.99;100.00;95964.03;5023744;28;20208;-54
2022/04/02 07:38:22;;;;;;;11.20;10.23;;;;;;;-1.09;100.00;95973.66;5005252;28;20208;-53
2022/04/02 07:40:54;;;;;;;12.20;10.27;;;;;;;-1.03;100.00;95976.53;5019605;28;20242;-54
2022/04/02 07:43:30;;;;;;;13.90;10.40;;;;;;;-0.82;100.00;95975.50;4971310;28;20223;-55
2022/04/02 07:46:04;;;;;;;12.70;11.50;;;;;;;-0.92;100.00;95977.31;5024222;28;20207;-55
2022/04/02 07:48:33;;;;;;;11.97;10.60;;;;;;;-0.83;100.00;95981.66;5005599;28;20211;-55
2022/04/02 07:51:06;;;;;;;14.97;12.03;;;;;;;-0.62;100.00;95991.84;5023463;28;20732;-54
2022/04/02 07:53:43;;;;;;;12.37;11.17;;;;;;;-0.53;100.00;95994.56;5006798;28;20227;-51
2022/04/02 07:56:15;;;;;;;17.63;11.00;;;;;;;-0.40;100.00;95999.41;4991037;28;20210;-52
2022/04/02 07:58:47;;;;;;;12.07;10.83;;;;;;;-0.45;100.00;96005.06;5024765;28;20202;-53
2022/04/02 08:01:18;;;;;;;13.50;10.63;;;;;;;-0.39;100.00;96003.66;4996646;28;20248;-52
2022/04/02 08:03:48;;;;;;;18.23;14.57;;;;;;;-0.32;100.00;96009.94;5005936;28;20316;-54
2022/04/02 08:06:16;;;;;;;16.63;13.13;;;;;;;-0.28;100.00;96002.66;5017054;28;20205;-51
2022/04/02 08:08:47;;;;;;;20.23;15.77;;;;;;;-0.01;100.00;96015.66;5006655;28;20227;-54
2022/04/02 08:11:17;;;;;;;36.20;22.40;;;;;;;-0.06;100.00;96014.44;5019266;28;20227;-54
2022/04/02 08:13:46;;;;;;;24.03;15.83;;;;;;;0.20;100.00;96019.78;4995217;28;20235;-53
2022/04/02 08:16:15;;;;;;;28.70;19.67;;;;;;;0.25;100.00;96022.78;5002777;28;20207;-52
2022/04/02 08:18:46;;;;;;;15.97;12.77;;;;;;;0.19;100.00;96023.38;5024143;28;20231;-52
2022/04/02 08:21:18;;;;;;;14.00;12.50;;;;;;;-0.22;100.00;96026.31;5000001;28;20242;-54
2022/04/02 08:23:48;;;;;;;28.77;23.87;;;;;;;-0.39;100.00;96032.28;5007191;28;20255;-56
2022/04/02 08:26:24;;;;;;;51.57;37.37;;;;;;;-0.55;100.00;96035.53;5018322;28;21004;-54
2022/04/02 08:29:22;;;;;;;37.47;26.73;;;;;;;-0.56;100.00;96029.50;4992592;28;20241;-53
2022/04/02 08:31:58;;;;;;;15.33;12.50;;;;;;;-0.52;100.00;96035.25;5001057;28;20896;-52
2022/04/02 08:34:46;;;;;;;17.10;15.20;;;;;;;-0.34;100.00;96049.13;5020444;28;20257;-56
2022/04/02 08:37:19;;;;;;;12.03;10.90;;;;;;;-0.51;100.00;96042.88;5002898;28;20209;-51
2022/04/02 08:39:58;;;;;;;10.93;9.83;;;;;;;-0.52;100.00;96043.03;5007713;28;20207;-50
2022/04/02 08:43:03;;;;;;;9.40;8.70;;;;;;;-0.53;100.00;96046.63;5009628;28;20204;-52
2022/04/02 08:45:33;;;;;;;10.83;9.83;;;;;;;-0.56;100.00;96060.72;4972263;28;20973;-51
2022/04/02 08:48:28;;;;;;;10.53;9.53;;;;;;;-0.64;100.00;96068.41;5004495;28;20219;-52
2022/04/02 08:51:11;;;;;;;10.43;9.40;;;;;;;-0.90;100.00;96069.00;5002091;28;20235;-55
2022/04/02 08:53:49;;;;;;;10.37;9.37;;;;;;;-0.76;100.00;96073.78;5011265;28;20240;-54
2022/04/02 08:56:24;;;;;;;7.83;7.03;;;;;;;-1.14;100.00;96085.84;5008942;28;20210;-58
2022/04/02 08:59:00;;;;;;;6.33;5.83;;;;;;;-1.38;100.00;96081.06;5014507;28;20210;-54
2022/04/02 09:01:38;;;;;;;9.80;8.77;;;;;;;-1.24;100.00;96074.66;4965499;28;20537;-56
2022/04/02 09:04:42;;;;;;;9.45;8.65;;;;;;;-0.88;100.00;96072.28;5022534;28;20463;-55
2022/04/02 09:07:46;;;;;;;7.40;6.60;;;;;;;-0.84;100.00;96081.44;4980105;28;20215;-55
2022/04/02 09:10:27;;;;;;;7.00;6.17;;;;;;;-1.11;100.00;96098.59;4999811;28;20227;-52
2022/04/02 09:13:37;;;;;;;8.10;7.27;;;;;;;-0.95;100.00;96082.41;5012293;28;20227;-56
2022/04/02 09:16:08;;;;;;;7.13;6.53;;;;;;;-0.95;100.00;96099.81;4947339;28;20215;-55
2022/04/02 09:18:39;;;;;;;8.97;8.03;;;;;;;-0.85;100.00;96098.00;4993756;28;20234;-54
2022/04/02 09:21:27;;;;;;;7.53;6.83;;;;;;;-0.78;100.00;96101.69;5020370;28;20253;-53
2022/04/02 09:24:06;;;;;;;7.63;6.93;;;;;;;-0.46;100.00;96105.72;4994109;28;20294;-53
2022/04/02 09:27:02;;;;;;;7.53;6.87;;;;;;;-0.48;100.00;96104.25;5015934;28;20215;-53
2022/04/02 09:29:32;;;;;;;8.00;7.40;;;;;;;-0.40;100.00;96108.72;5025846;28;20204;-54
2022/04/02 09:32:22;;;;;;;10.30;6.90;;;;;;;-0.32;100.00;96120.09;4992851;28;21108;-58
2022/04/02 09:35:30;;;;;;;7.93;7.33;;;;;;;-0.36;100.00;96110.91;5002713;28;20798;-54
2022/04/02 09:38:25;;;;;;;8.30;7.27;;;;;;;-0.19;100.00;96121.53;5010434;28;20230;-55
2022/04/02 09:40:54;;;;;;;8.43;7.40;;;;;;;-0.12;100.00;96120.03;5006027;28;20216;-54
2022/04/02 09:43:27;;;;;;;9.60;8.70;;;;;;;0.02;100.00;96121.34;5012806;28;20627;-55
2022/04/02 09:46:20;;;;;;;8.10;7.30;;;;;;;-0.06;100.00;96119.44;4992266;28;21121;-57
2022/04/02 09:49:00;;;;;;;9.10;8.20;;;;;;;-0.17;100.00;96127.44;4987679;28;20317;-57
2022/04/02 09:51:32;;;;;;;7.60;6.80;;;;;;;0.02;100.00;96125.72;5027089;28;20227;-56
2022/04/02 09:54:05;;;;;;;9.63;8.93;;;;;;;0.02;100.00;96123.13;5008534;28;20231;-57
2022/04/02 09:56:36;;;;;;;8.60;7.83;;;;;;;0.10;100.00;96131.03;5000128;28;20658;-54
2022/04/02 09:59:07;;;;;;;8.07;7.40;;;;;;;0.07;100.00;96128.72;5022400;28;20294;-55
2022/04/02 10:01:40;;;;;;;7.50;6.80;;;;;;;0.12;100.00;96118.66;4983951;28;20234;-55
2022/04/02 10:04:38;;;;;;;9.47;8.50;;;;;;;0.12;100.00;96139.50;4992447;28;20687;-55
2022/04/02 10:07:10;;;;;;;9.13;7.63;;;;;;;0.02;100.00;96136.97;5020020;28;20239;-58
2022/04/02 10:09:40;;;;;;;6.93;6.33;;;;;;;-0.08;100.00;96147.41;5003460;28;20222;-55
2022/04/02 10:12:09;;;;;;;6.43;5.90;;;;;;;-0.35;100.00;96143.78;5012228;28;20234;-58
2022/04/02 10:14:40;;;;;;;5.80;5.30;;;;;;;-0.24;100.00;96147.19;5006010;28;20232;-54
2022/04/02 10:17:09;;;;;;;5.97;5.53;;;;;;;-0.19;100.00;96153.63;4987577;28;20230;-57
2022/04/02 10:19:40;;;;;;;6.50;5.90;;;;;;;0.19;100.00;96156.22;4985778;28;20231;-55
2022/04/02 10:22:10;;;;;;;6.30;5.83;;;;;;;-0.03;100.00;96165.19;5024057;28;20230;-55
2022/04/02 10:24:40;;;;;;;5.80;5.17;;;;;;;-0.03;100.00;96155.63;5007647;28;21425;-57
2022/04/02 10:27:11;;;;;;;6.87;6.10;;;;;;;-0.10;100.00;96159.75;5009687;28;20219;-55
2022/04/02 10:29:52;;;;;;;5.63;5.23;;;;;;;-0.07;100.00;96167.28;5008042;28;20236;-58
2022/04/02 10:32:34;;;;;;;5.97;5.50;;;;;;;-0.08;100.00;96164.81;5005602;28;20212;-55
2022/04/02 10:35:10;;;;;;;5.50;5.10;;;;;;;0.14;100.00;96168.84;5007846;28;20239;-55
2022/04/02 10:37:44;;;;;;;5.80;5.30;;;;;;;0.33;100.00;96167.13;5001425;28;20944;-58
2022/04/02 10:40:14;;;;;;;6.07;5.57;;;;;;;-0.06;100.00;96174.13;5024842;28;20274;-57
2022/04/02 10:42:52;;;;;;;6.07;5.47;;;;;;;0.05;100.00;96169.69;4993441;28;20988;-59
2022/04/02 10:45:21;;;;;;;5.47;5.03;;;;;;;0.35;100.00;96167.81;4987865;28;20227;-57
2022/04/02 10:47:51;;;;;;;6.40;5.90;;;;;;;0.23;100.00;96167.16;5024824;28;20207;-54
2022/04/02 10:50:22;;;;;;;5.80;5.40;;;;;;;-0.16;100.00;96173.34;4987018;28;20985;-59
2022/04/02 10:52:52;;;;;;;6.93;5.70;;;;;;;-0.27;100.00;96173.50;5003257;28;20212;-56
2022/04/02 10:55:23;;;;;;;7.37;6.80;;;;;;;-0.34;100.00;96184.47;5019198;28;20228;-56
2022/04/02 10:57:52;;;;;;;7.00;6.30;;;;;;;-0.39;100.00;96173.66;4995534;28;20212;-55
2022/04/02 11:00:20;;;;;;;6.90;6.07;;;;;;;-0.31;100.00;96184.19;5005957;28;20230;-55
2022/04/02 11:02:50;;;;;;;6.33;5.83;;;;;;;-0.42;100.00;96189.56;5027477;28;20208;-58
2022/04/02 11:05:20;;;;;;;7.33;6.73;;;;;;;-0.76;100.00;96187.41;4971174;28;20219;-55
2022/04/02 11:07:51;;;;;;;6.20;5.73;;;;;;;-0.41;100.00;96203.38;5001461;28;20212;-57
2022/04/02 11:10:21;;;;;;;6.67;6.13;;;;;;;-0.36;100.00;96199.41;5018184;28;20231;-57
2022/04/02 11:13:00;;;;;;;5.47;5.17;;;;;;;-0.17;100.00;96195.16;5009646;28;20337;-56
2022/04/02 11:15:30;;;;;;;7.13;6.53;;;;;;;0.08;100.00;96195.47;5007977;28;20534;-56
2022/04/02 11:17:59;;;;;;;5.30;4.80;;;;;;;-0.15;100.00;96195.81;5017002;28;20199;-57
2022/04/02 11:20:29;;;;;;;6.07;5.57;;;;;;;-0.28;100.00;96190.91;4988627;28;20248;-60
2022/04/02 11:23:19;;;;;;;6.27;5.73;;;;;;;-0.12;100.00;96192.94;4998032;28;20207;-56
2022/04/02 11:25:51;;;;;;;6.30;5.70;;;;;;;-0.11;100.00;96194.56;5027126;28;20209;-58
2022/04/02 11:28:20;;;;;;;6.03;5.63;;;;;;;-0.15;100.00;96188.81;5007146;28;20207;-59
2022/04/02 11:30:51;;;;;;;6.63;6.07;;;;;;;-0.39;100.00;96194.50;5022444;28;20571;-56
2022/04/02 11:33:21;;;;;;;6.50;5.97;;;;;;;-0.57;100.00;96207.38;5007322;28;21015;-59
2022/04/02 11:35:52;;;;;;;5.80;5.40;;;;;;;-0.48;100.00;96211.75;4990395;28;20228;-56
2022/04/02 11:38:34;;;;;;;5.87;5.33;;;;;;;-0.39;100.00;96210.09;5003615;28;20239;-60
2022/04/02 11:41:09;;;;;;;6.33;5.90;;;;;;;-0.34;100.00;96213.13;5017610;28;20593;-57
2022/04/02 11:43:40;;;;;;;7.40;6.73;;;;;;;-0.56;100.00;96214.25;5006619;28;20786;-56
2022/04/02 11:46:09;;;;;;;5.63;5.23;;;;;;;-0.46;100.00;96214.22;5021041;28;20922;-57
2022/04/02 11:48:40;;;;;;;6.03;5.63;;;;;;;-0.48;100.00;96216.16;5006294;28;20211;-56